createdAt,value
2018-08-24T00:00:56.663Z,72.78
2018-08-24T00:02:06.446Z,72.97
2018-08-24T00:03:16.597Z,72.88
2018-08-24T00:04:26.764Z,72.49
2018-08-24T00:05:36.897Z,72
2018-08-24T00:06:47.066Z,72.49
2018-08-24T00:07:56.932Z,72.3
2018-08-24T00:09:07.066Z,72.3
2018-08-24T00:10:17.214Z,71.91
2018-08-24T00:11:27.367Z,72
2018-08-24T00:12:37.585Z,72.58
2018-08-24T00:13:47.886Z,72.3
2018-08-24T00:14:58.096Z,72.49
2018-08-24T00:16:08.325Z,72.06
2018-08-24T00:17:18.492Z,72.39
2018-08-24T00:18:28.639Z,72.45
2018-08-24T00:19:38.792Z,72.36
2018-08-24T00:20:48.918Z,72.74
2018-08-24T00:21:58.686Z,72.55
2018-08-24T00:23:08.821Z,72.36
2018-08-24T00:24:18.717Z,72.74
2018-08-24T00:25:28.835Z,72.94
2018-08-24T00:26:38.737Z,72.74
2018-08-24T00:27:48.871Z,72.84
2018-08-24T00:28:59.012Z,72.84
2018-08-24T00:30:09.185Z,72.84
2018-08-24T00:31:19.342Z,72.45
2018-08-24T00:32:29.223Z,72.64
2018-08-24T00:33:39.363Z,72.26
2018-08-24T00:34:49.525Z,72.55
2018-08-24T00:35:59.441Z,72.06
2018-08-24T00:37:09.336Z,72.26
2018-08-24T00:38:19.545Z,71.88
2018-08-24T00:39:29.431Z,71.58
2018-08-24T00:40:39.583Z,71.88
2018-08-24T00:41:49.765Z,71.88
2018-08-24T00:42:59.624Z,71.88
2018-08-24T00:44:09.836Z,71.88
2018-08-24T00:45:19.991Z,71.88
2018-08-24T00:46:30.232Z,71.94
2018-08-24T00:47:40.462Z,71.64
2018-08-24T00:48:50.693Z,71.74
2018-08-24T00:50:00.563Z,71.94
2018-08-24T00:51:10.687Z,71.84
2018-08-24T00:52:20.810Z,71.74
2018-08-24T00:53:31.017Z,71.74
2018-08-24T00:54:41.171Z,71.45
2018-08-24T00:55:51.325Z,71.84
2018-08-24T00:57:01.240Z,71.84
2018-08-24T00:58:11.141Z,71.94
2018-08-24T00:59:21.282Z,71.45
2018-08-24T01:00:31.435Z,71.55
2018-08-24T01:01:41.599Z,71.16
2018-08-24T01:02:51.762Z,71.36
2018-08-24T01:04:02.054Z,71.16
2018-08-24T01:05:11.920Z,71.36
2018-08-24T01:06:22.168Z,70.68
2018-08-24T01:07:32.425Z,70.48
2018-08-24T01:08:42.860Z,70.68
2018-08-24T01:09:53.013Z,70.68
2018-08-24T01:11:02.970Z,70.78
2018-08-24T01:12:13.119Z,70.87
2018-08-24T01:13:23.371Z,70.68
2018-08-24T01:14:33.497Z,70.87
2018-08-24T01:15:43.782Z,70.97
2018-08-24T01:16:54.021Z,70.97
2018-08-24T01:18:04.436Z,70.97
2018-08-24T01:19:14.596Z,70.78
2018-08-24T01:20:24.767Z,70.58
2018-08-24T01:21:35.192Z,70.87
2018-08-24T01:22:45.131Z,70.78
2018-08-24T01:23:55.290Z,70.68
2018-08-24T01:25:05.438Z,70.78
2018-08-24T01:26:15.689Z,70.29
2018-08-24T01:27:25.977Z,70.1
2018-08-24T01:28:36.874Z,70.48
2018-08-24T01:29:46.663Z,69.62
2018-08-24T01:30:56.818Z,69.71
2018-08-24T01:32:07.033Z,69.23
2018-08-24T01:33:17.184Z,69.04
2018-08-24T01:34:27.389Z,69.23
2018-08-24T01:35:37.564Z,69.23
2018-08-24T01:36:47.967Z,69.32
2018-08-24T01:37:58.088Z,69.23
2018-08-24T01:39:08.351Z,69.04
2018-08-24T01:40:18.242Z,69.13
2018-08-24T01:41:28.362Z,69.13
2018-08-24T01:42:38.487Z,68.94
2018-08-24T01:43:48.603Z,69.13
2018-08-24T01:44:58.750Z,68.94
2018-08-24T01:46:08.906Z,68.46
2018-08-24T01:47:19.043Z,68.84
2018-08-24T01:48:30.147Z,68.75
2018-08-24T01:49:40.335Z,68.84
2018-08-24T01:50:50.516Z,68.75
2018-08-24T01:52:00.731Z,68.46
2018-08-24T01:53:10.950Z,68.75
2018-08-24T01:54:21.163Z,68.65
2018-08-24T01:55:31.333Z,68.75
2018-08-24T01:56:41.541Z,68.55
2018-08-24T01:57:51.702Z,68.46
2018-08-24T01:59:01.929Z,68.46
2018-08-24T02:00:12.306Z,68.36
2018-08-24T02:01:22.487Z,68.17
2018-08-24T02:02:32.763Z,68.46
2018-08-24T02:03:42.974Z,67.88
2018-08-24T02:04:53.137Z,67.91
2018-08-24T02:06:03.334Z,67.78
2018-08-24T02:07:13.575Z,67.88
2018-08-24T02:08:23.757Z,68.36
2018-08-24T02:09:33.983Z,68.17
2018-08-24T02:10:44.206Z,68.46
2018-08-24T02:11:54.396Z,68.46
2018-08-24T02:13:04.288Z,68.36
2018-08-24T02:14:14.190Z,68.17
2018-08-24T02:15:24.499Z,68.26
2018-08-24T02:16:34.650Z,68.26
2018-08-24T02:17:44.790Z,68.46
2018-08-24T02:18:54.917Z,68.46
2018-08-24T02:20:05.098Z,68.46
2018-08-24T02:21:15.236Z,68.36
2018-08-24T02:22:25.202Z,68.17
2018-08-24T02:23:35.318Z,68.36
2018-08-24T02:24:45.471Z,68.17
2018-08-24T02:25:55.661Z,68.36
2018-08-24T02:27:05.891Z,68.17
2018-08-24T02:28:16.115Z,68.26
2018-08-24T02:29:26.012Z,68.46
2018-08-24T02:30:36.159Z,68.46
2018-08-24T02:31:46.063Z,68.36
2018-08-24T02:32:55.730Z,68.46
2018-08-24T02:34:05.863Z,68.46
2018-08-24T02:35:15.765Z,68.36
2018-08-24T02:36:25.886Z,68.36
2018-08-24T02:37:36.028Z,68.17
2018-08-24T02:38:45.938Z,68.17
2018-08-24T02:39:56.066Z,68.55
2018-08-24T02:41:06.188Z,68.46
2018-08-24T02:42:17.489Z,68.46
2018-08-24T02:43:27.334Z,68.84
2018-08-24T02:44:37.492Z,68.46
2018-08-24T02:45:47.652Z,68.46
2018-08-24T02:46:57.778Z,68.46
2018-08-24T02:48:07.964Z,68.55
2018-08-24T02:49:18.143Z,68.65
2018-08-24T02:50:28.299Z,68.65
2018-08-24T02:51:38.419Z,68.36
2018-08-24T02:52:48.391Z,68.46
2018-08-24T02:53:58.574Z,69.23
2018-08-24T02:55:08.872Z,68.65
2018-08-24T02:56:19.105Z,68.65
2018-08-24T02:57:29.262Z,68.52
2018-08-24T02:58:39.423Z,68.62
2018-08-24T02:59:49.578Z,68.62
2018-08-24T03:00:59.852Z,68.52
2018-08-24T03:02:10.041Z,68.62
2018-08-24T03:03:20.436Z,69.2
2018-08-24T03:04:30.596Z,69.1
2018-08-24T03:05:42.325Z,69.2
2018-08-24T03:06:52.495Z,69.2
2018-08-24T03:08:02.645Z,69.1
2018-08-24T03:11:42.710Z,69.29
2018-08-24T03:12:52.873Z,69.29
2018-08-24T03:14:03.120Z,69.29
2018-08-24T03:15:13.000Z,69.2
2018-08-24T03:16:22.969Z,69.29
2018-08-24T03:17:33.561Z,69.29
2018-08-24T03:18:44.129Z,69.2
2018-08-24T03:19:54.837Z,69.2
2018-08-24T03:21:04.982Z,69.29
2018-08-24T03:22:15.128Z,69.2
2018-08-24T03:23:25.298Z,69.49
2018-08-24T03:24:35.164Z,69.39
2018-08-24T03:25:45.320Z,69.1
2018-08-24T03:26:55.199Z,69.29
2018-08-24T03:28:05.322Z,69.1
2018-08-24T03:29:15.516Z,69.1
2018-08-24T03:30:25.399Z,69.1
2018-08-24T03:31:35.572Z,69.2
2018-08-24T03:32:45.192Z,69
2018-08-24T03:33:55.077Z,69.1
2018-08-24T03:35:05.217Z,69.2
2018-08-24T03:36:15.412Z,69.2
2018-08-24T03:37:25.629Z,68.81
2018-08-24T03:38:35.793Z,68.52
2018-08-24T03:39:45.988Z,68.52
2018-08-24T03:40:56.174Z,68.91
2018-08-24T03:42:06.418Z,68.52
2018-08-24T03:43:16.555Z,68.62
2018-08-24T03:44:26.092Z,68.91
2018-08-24T03:45:36.237Z,68.62
2018-08-24T03:46:46.556Z,69
2018-08-24T03:47:56.744Z,69
2018-08-24T03:49:06.879Z,68.62
2018-08-24T03:50:17.171Z,68.71
2018-08-24T03:51:27.345Z,68.71
2018-08-24T03:52:37.486Z,69
2018-08-24T03:53:47.784Z,68.62
2018-08-24T03:54:57.659Z,69.16
2018-08-24T03:56:07.793Z,68.68
2018-08-24T03:57:17.928Z,68.59
2018-08-24T03:58:28.117Z,68.81
2018-08-24T03:59:38.275Z,68.49
2018-08-24T04:00:48.422Z,68.91
2018-08-24T04:01:58.544Z,68.87
2018-08-24T04:03:08.907Z,68.87
2018-08-24T04:04:19.052Z,69
2018-08-24T04:05:29.230Z,69.16
2018-08-24T04:06:39.374Z,69.07
2018-08-24T04:07:49.534Z,68.97
2018-08-24T04:08:59.680Z,68.97
2018-08-24T04:10:09.827Z,68.59
2018-08-24T04:11:20.091Z,68.87
2018-08-24T04:12:29.989Z,68.87
2018-08-24T04:13:39.972Z,69.07
2018-08-24T04:14:50.255Z,68.97
2018-08-24T04:16:00.032Z,69.26
2018-08-24T04:17:10.171Z,68.97
2018-08-24T04:18:20.367Z,69.45
2018-08-24T04:19:30.908Z,69.16
2018-08-24T04:20:41.683Z,69.07
2018-08-24T04:21:51.836Z,69.26
2018-08-24T04:23:01.961Z,69.26
2018-08-24T04:24:12.127Z,69.16
2018-08-24T04:25:22.260Z,69.07
2018-08-24T04:26:32.488Z,69.35
2018-08-24T04:27:42.701Z,69.35
2018-08-24T04:28:52.312Z,69.16
2018-08-24T04:30:02.468Z,69.45
2018-08-24T04:31:12.357Z,69.16
2018-08-24T04:32:21.979Z,69.35
2018-08-24T04:33:31.553Z,69.35
2018-08-24T04:34:41.715Z,68.97
2018-08-24T04:35:51.910Z,69.2
2018-08-24T04:37:02.092Z,69.35
2018-08-24T04:38:11.952Z,69.1
2018-08-24T04:39:22.125Z,69.26
2018-08-24T04:40:32.565Z,69.26
2018-08-24T04:41:42.697Z,69.35
2018-08-24T04:42:52.581Z,69.26
2018-08-24T04:44:02.787Z,69.35
2018-08-24T04:45:12.917Z,69.16
2018-08-24T04:46:23.052Z,69.16
2018-08-24T04:47:33.177Z,69.16
2018-08-24T04:48:43.449Z,69.07
2018-08-24T04:49:53.603Z,69.16
2018-08-24T04:51:03.805Z,69.16
2018-08-24T04:52:13.980Z,69.26
2018-08-24T04:53:24.130Z,69.16
2018-08-24T04:54:34.290Z,69.35
2018-08-24T04:55:44.508Z,69.35
2018-08-24T04:56:54.729Z,69.26
2018-08-24T04:58:04.891Z,69.26
2018-08-24T04:59:14.920Z,69.55
2018-08-24T05:00:25.046Z,69.16
2018-08-24T05:01:35.177Z,69.16
2018-08-24T05:02:45.105Z,69.35
2018-08-24T05:03:55.261Z,69.07
2018-08-24T05:05:05.445Z,69.07
2018-08-24T05:06:15.676Z,69.74
2018-08-24T05:07:25.566Z,69.74
2018-08-24T05:08:35.704Z,69.16
2018-08-24T05:09:45.602Z,69.64
2018-08-24T05:10:55.728Z,69.26
2018-08-24T05:12:05.932Z,69.45
2018-08-24T05:13:16.062Z,69.55
2018-08-24T05:14:26.194Z,69.16
2018-08-24T05:15:36.391Z,69.35
2018-08-24T05:16:46.317Z,69.16
2018-08-24T05:17:56.464Z,69.16
2018-08-24T05:19:06.621Z,69.07
2018-08-24T05:20:16.846Z,69
2018-08-24T05:21:27.159Z,68.87
2018-08-24T05:22:37.552Z,69
2018-08-24T05:23:47.682Z,68.71
2018-08-24T05:24:57.933Z,68.81
2018-08-24T05:26:08.063Z,68.62
2018-08-24T05:27:18.474Z,68.62
2018-08-24T05:28:28.637Z,68.62
2018-08-24T05:29:38.775Z,68.71
2018-08-24T05:30:48.933Z,69
2018-08-24T05:31:59.079Z,68.71
2018-08-24T05:33:09.204Z,68.62
2018-08-24T05:34:19.092Z,68.43
2018-08-24T05:35:29.019Z,68.33
2018-08-24T05:36:39.498Z,68.13
2018-08-24T05:37:49.367Z,67.78
2018-08-24T05:38:59.522Z,67.78
2018-08-24T05:40:09.672Z,67.59
2018-08-24T05:41:19.671Z,67.3
2018-08-24T05:42:29.386Z,67.59
2018-08-24T05:43:39.530Z,67.49
2018-08-24T05:44:49.686Z,67.59
2018-08-24T05:45:59.807Z,67.4
2018-08-24T05:47:09.996Z,67.3
2018-08-24T05:48:20.167Z,67.69
2018-08-24T05:49:30.415Z,67.49
2018-08-24T05:50:40.591Z,67.4
2018-08-24T05:51:50.775Z,67.3
2018-08-24T05:53:00.899Z,67.49
2018-08-24T05:54:12.157Z,67.4
2018-08-24T05:55:22.285Z,67.3
2018-08-24T05:56:32.475Z,67.49
2018-08-24T05:57:42.608Z,67.3
2018-08-24T05:58:52.781Z,67.59
2018-08-24T06:00:02.717Z,67.4
2018-08-24T06:01:12.846Z,67.01
2018-08-24T06:02:23.008Z,67.49
2018-08-24T06:03:33.407Z,67.59
2018-08-24T06:04:43.570Z,67.4
2018-08-24T06:05:53.875Z,67.49
2018-08-24T06:07:05.021Z,67.59
2018-08-24T06:08:15.155Z,67.3
2018-08-24T06:09:25.299Z,67.49
2018-08-24T06:10:35.024Z,67.49
2018-08-24T06:11:45.166Z,67.52
2018-08-24T06:12:55.044Z,67.33
2018-08-24T06:14:05.198Z,67.3
2018-08-24T06:15:15.312Z,67.43
2018-08-24T06:16:25.481Z,67.4
2018-08-24T06:17:35.702Z,67.33
2018-08-24T06:18:45.848Z,67.62
2018-08-24T06:19:55.966Z,67.43
2018-08-24T06:21:06.093Z,67.52
2018-08-24T06:22:16.276Z,66.85
2018-08-24T06:23:26.436Z,67.33
2018-08-24T06:24:36.702Z,67.24
2018-08-24T06:25:46.945Z,67.62
2018-08-24T06:26:57.125Z,66.85
2018-08-24T06:28:07.365Z,67.33
2018-08-24T06:29:17.600Z,67.24
2018-08-24T06:30:27.764Z,67.43
2018-08-24T06:31:37.962Z,66.94
2018-08-24T06:32:48.203Z,67.04
2018-08-24T06:33:58.755Z,67.04
2018-08-24T06:35:08.892Z,67.04
2018-08-24T06:36:19.070Z,66.66
2018-08-24T06:37:29.210Z,66.4
2018-08-24T06:38:39.070Z,66.5
2018-08-24T06:39:49.205Z,66.69
2018-08-24T06:40:59.330Z,66.69
2018-08-24T06:42:09.460Z,66.59
2018-08-24T06:43:19.579Z,66.66
2018-08-24T06:44:29.488Z,66.4
2018-08-24T06:45:39.631Z,66.69
2018-08-24T06:46:49.861Z,66.5
2018-08-24T06:48:00.048Z,66.3
2018-08-24T06:49:10.281Z,66.5
2018-08-24T06:50:20.469Z,66.69
2018-08-24T06:51:30.375Z,66.11
2018-08-24T06:52:40.605Z,66.01
2018-08-24T06:53:50.933Z,66.3
2018-08-24T06:55:01.513Z,65.72
2018-08-24T06:56:11.717Z,65.92
2018-08-24T06:57:21.860Z,66.4
2018-08-24T06:58:32.292Z,66.01
2018-08-24T06:59:42.561Z,66.11
2018-08-24T07:00:52.762Z,65.63
2018-08-24T07:02:02.630Z,65.82
2018-08-24T07:03:13.710Z,65.95
2018-08-24T07:04:23.279Z,65.85
2018-08-24T07:05:33.469Z,65.56
2018-08-24T07:06:43.694Z,65.56
2018-08-24T07:07:53.935Z,65.17
2018-08-24T07:09:04.092Z,64.98
2018-08-24T07:10:14.025Z,64.79
2018-08-24T07:11:24.045Z,64.79
2018-08-24T07:12:34.325Z,64.89
2018-08-24T07:13:44.514Z,64.5
2018-08-24T07:14:54.747Z,64.43
2018-08-24T07:16:04.922Z,64.72
2018-08-24T07:17:15.161Z,64.04
2018-08-24T07:18:25.302Z,63.66
2018-08-24T07:19:35.461Z,63.46
2018-08-24T07:20:45.604Z,63.08
2018-08-24T07:21:55.952Z,62.88
2018-08-24T07:23:06.277Z,63.18
2018-08-24T07:24:16.479Z,62.88
2018-08-24T07:25:26.353Z,62.98
2018-08-24T07:26:36.483Z,63.18
2018-08-24T07:27:46.688Z,63.37
2018-08-24T07:28:56.846Z,63.21
2018-08-24T07:30:09.537Z,63.4
2018-08-24T07:31:19.667Z,63.21
2018-08-24T07:32:29.837Z,63.21
2018-08-24T07:33:39.987Z,62.92
2018-08-24T07:34:51.115Z,62.72
2018-08-24T07:36:01.271Z,62.72
2018-08-24T07:37:11.443Z,62.98
2018-08-24T07:38:21.876Z,63.66
2018-08-24T07:39:32.031Z,64.04
2018-08-24T07:40:42.179Z,64.79
2018-08-24T07:41:52.426Z,65.47
2018-08-24T07:43:03.115Z,65.34
2018-08-24T07:44:13.275Z,66.3
2018-08-24T07:45:23.442Z,66.69
2018-08-24T07:46:33.584Z,67.04
2018-08-24T07:47:43.751Z,67.04
2018-08-24T07:48:53.884Z,67.04
2018-08-24T07:50:04.017Z,67.04
2018-08-24T07:51:14.190Z,66.85
2018-08-24T07:52:24.076Z,66.56
2018-08-24T07:53:34.212Z,66.94
2018-08-24T07:54:44.086Z,66.46
2018-08-24T07:55:53.653Z,65.98
2018-08-24T07:57:03.989Z,66.17
2018-08-24T07:58:14.862Z,65.78
2018-08-24T07:59:25.106Z,65.3
2018-08-24T08:00:34.973Z,64.05
2018-08-24T08:01:45.345Z,63.31
2018-08-24T08:02:55.492Z,63.31
2018-08-24T08:04:05.641Z,63.4
2018-08-24T08:05:15.575Z,62.92
2018-08-24T08:06:26.231Z,62.82
2018-08-24T08:07:36.033Z,63.02
2018-08-24T08:08:46.242Z,62.63
2018-08-24T08:09:56.382Z,62.47
2018-08-24T08:11:06.551Z,62.18
2018-08-24T08:12:16.682Z,61.5
2018-08-24T08:13:26.837Z,61.98
2018-08-24T08:14:36.448Z,62.18
2018-08-24T08:15:46.667Z,62.47
2018-08-24T08:16:56.923Z,62.27
2018-08-24T08:18:06.890Z,62.27
2018-08-24T08:19:17.508Z,62.66
2018-08-24T08:20:27.707Z,62.92
2018-08-24T08:21:38.606Z,63.21
2018-08-24T08:22:48.778Z,62.82
2018-08-24T08:23:58.937Z,63.31
2018-08-24T08:25:09.108Z,64.85
2018-08-24T08:26:19.281Z,65.5
2018-08-24T08:27:29.475Z,66.14
2018-08-24T08:28:39.614Z,66.59
2018-08-24T08:29:49.738Z,67.36
2018-08-24T08:30:59.715Z,67.81
2018-08-24T08:32:09.904Z,68.39
2018-08-24T08:33:19.822Z,69.32
2018-08-24T08:34:29.944Z,70.35
2018-08-24T08:35:40.116Z,70.35
2018-08-24T08:36:50.270Z,70.54
2018-08-24T08:38:00.443Z,71.22
2018-08-24T08:39:10.456Z,71.7
2018-08-24T08:40:20.914Z,72.33
2018-08-24T08:41:30.793Z,72.05
2018-08-24T08:42:40.905Z,71.47
2018-08-24T08:43:51.047Z,71.37
2018-08-24T08:45:00.890Z,71.37
2018-08-24T08:46:11.038Z,71.66
2018-08-24T08:47:20.814Z,71.37
2018-08-24T08:48:30.955Z,71.76
2018-08-24T08:49:41.132Z,71.56
2018-08-24T08:50:51.300Z,72.43
2018-08-24T08:52:01.429Z,72.14
2018-08-24T08:53:11.408Z,71.76
2018-08-24T08:54:21.281Z,71.76
2018-08-24T08:55:31.460Z,71.56
2018-08-24T08:56:41.739Z,71.37
2018-08-24T08:57:51.913Z,71.47
2018-08-24T08:59:02.123Z,70.83
2018-08-24T09:00:12.262Z,70.5
2018-08-24T09:01:22.468Z,70.6
2018-08-24T09:02:32.363Z,70.12
2018-08-24T09:03:42.512Z,70.5
2018-08-24T09:04:52.920Z,71.18
2018-08-24T09:06:02.956Z,71.18
2018-08-24T09:07:13.551Z,71.18
2018-08-24T09:08:23.486Z,71.18
2018-08-24T09:09:33.345Z,70.79
2018-08-24T09:10:43.559Z,71.08
2018-08-24T09:12:25.373Z,71.37
2018-08-24T09:13:35.540Z,71.37
2018-08-24T09:14:45.696Z,71.66
2018-08-24T09:15:55.827Z,70.98
2018-08-24T09:17:05.970Z,71.37
2018-08-24T09:18:16.244Z,70.92
2018-08-24T09:19:26.643Z,70.73
2018-08-24T09:20:36.820Z,70.64
2018-08-24T09:21:46.982Z,70.83
2018-08-24T09:22:58.126Z,70.44
2018-08-24T09:24:08.311Z,70.64
2018-08-24T09:25:18.582Z,70.64
2018-08-24T09:26:29.114Z,70.25
2018-08-24T09:27:39.276Z,70.73
2018-08-24T09:28:49.199Z,70.83
2018-08-24T09:29:58.986Z,70.09
2018-08-24T09:31:08.890Z,70.28
2018-08-24T09:32:18.738Z,70.38
2018-08-24T09:33:29.134Z,70
2018-08-24T09:34:39.495Z,69.64
2018-08-24T09:35:49.698Z,69.16
2018-08-24T09:36:59.843Z,67.75
2018-08-24T09:38:09.977Z,66.94
2018-08-24T09:39:19.619Z,66.4
2018-08-24T09:40:29.510Z,65.59
2018-08-24T09:41:39.413Z,64.47
2018-08-24T09:42:49.585Z,62.75
2018-08-24T09:43:59.859Z,59.69
2018-08-24T09:45:10.062Z,57.97
2018-08-24T09:46:20.275Z,59.23
2018-08-24T09:47:31.445Z,58.26
2018-08-24T09:48:41.671Z,58.48
2018-08-24T09:49:52.002Z,57.9
2018-08-24T09:51:02.221Z,57.64
2018-08-24T09:52:12.160Z,57.25
2018-08-24T09:53:22.083Z,55.99
2018-08-24T09:54:32.249Z,56.21
2018-08-24T09:55:42.435Z,55.94
2018-08-24T09:56:52.816Z,55.65
2018-08-24T09:58:03.044Z,55.07
2018-08-24T09:59:13.214Z,54.9
2018-08-24T10:00:23.307Z,53.71
2018-08-24T10:01:34.473Z,53.74
2018-08-24T10:02:44.692Z,54
2018-08-24T10:03:55.538Z,53.71
2018-08-24T10:05:05.694Z,53.42
2018-08-24T10:06:16.093Z,51.97
2018-08-24T10:07:26.657Z,51.97
2018-08-24T10:08:36.844Z,52.15
2018-08-24T10:09:47.098Z,51.79
2018-08-24T10:10:57.291Z,51.79
2018-08-24T10:12:07.534Z,50.24
2018-08-24T10:13:18.089Z,49.49
2018-08-24T10:14:28.889Z,50.04
2018-08-24T10:15:39.134Z,49.76
2018-08-24T10:16:49.387Z,48.49
2018-08-24T10:17:59.329Z,48.2
2018-08-24T10:19:09.497Z,49.27
2018-08-24T10:20:19.888Z,47.54
2018-08-24T10:21:30.037Z,47.05
2018-08-24T10:22:40.210Z,47.44
2018-08-24T10:23:50.358Z,46.67
2018-08-24T10:25:00.418Z,46.5
2018-08-24T10:26:10.851Z,46.98
2018-08-24T10:27:20.998Z,46.23
2018-08-24T10:28:31.136Z,45.15
2018-08-24T10:29:41.372Z,45.2
2018-08-24T10:30:51.662Z,44.71
2018-08-24T10:32:01.813Z,44.23
2018-08-24T10:33:12.119Z,44.13
2018-08-24T10:34:22.330Z,44.62
2018-08-24T10:35:32.555Z,44.23
2018-08-24T10:36:42.745Z,43.43
2018-08-24T10:37:52.896Z,43.52
2018-08-24T10:39:02.932Z,43.71
2018-08-24T10:40:13.502Z,44.28
2018-08-24T10:41:23.669Z,44.09
2018-08-24T10:42:33.549Z,44.18
2018-08-24T10:43:43.814Z,43.38
2018-08-24T10:44:54.029Z,43.87
2018-08-24T10:46:04.193Z,43.67
2018-08-24T10:47:14.461Z,43.87
2018-08-24T10:48:24.894Z,44.14
2018-08-24T10:49:35.305Z,44.24
2018-08-24T10:50:45.560Z,44.7
2018-08-24T10:51:55.564Z,45.07
2018-08-24T10:53:05.093Z,45.14
2018-08-24T10:54:15.294Z,45.53
2018-08-24T10:55:25.327Z,45.89
2018-08-24T10:56:35.652Z,45.89
2018-08-24T10:57:45.557Z,46.26
2018-08-24T10:58:55.704Z,46.26
2018-08-24T11:00:05.826Z,46.45
2018-08-24T11:01:15.968Z,46.43
2018-08-24T11:02:26.101Z,47.2
2018-08-24T11:03:36.257Z,47.38
2018-08-24T11:04:46.706Z,47.86
2018-08-24T11:05:56.879Z,48.25
2018-08-24T11:07:07.062Z,47.67
2018-08-24T11:08:17.432Z,47.94
2018-08-24T11:09:27.590Z,47.84
2018-08-24T11:10:37.765Z,48.13
2018-08-24T11:11:47.915Z,47.94
2018-08-24T11:12:57.795Z,48.22
2018-08-24T11:14:07.892Z,48.61
2018-08-24T11:15:17.803Z,48.97
2018-08-24T11:16:27.952Z,48.97
2018-08-24T11:17:38.124Z,48.79
2018-08-24T11:18:48.251Z,49.07
2018-08-24T11:19:58.429Z,49.05
2018-08-24T11:21:08.693Z,49.34
2018-08-24T11:22:18.922Z,49.24
2018-08-24T11:23:29.179Z,49.54
2018-08-24T11:24:39.481Z,50.02
2018-08-24T11:25:49.656Z,50.6
2018-08-24T11:26:59.881Z,50.7
2018-08-24T11:28:09.992Z,50.89
2018-08-24T11:29:19.845Z,51.28
2018-08-24T11:30:29.733Z,51.47
2018-08-24T11:31:39.647Z,51.28
2018-08-24T11:32:49.532Z,50.89
2018-08-24T11:33:59.405Z,50.98
2018-08-24T11:35:09.963Z,51.37
2018-08-24T11:36:20.430Z,51.4
2018-08-24T11:37:31.040Z,51.59
2018-08-24T11:38:41.193Z,51.98
2018-08-24T11:39:51.327Z,51.78
2018-08-24T11:41:01.493Z,51.88
2018-08-24T11:42:11.889Z,51.01
2018-08-24T11:43:22.558Z,51.88
2018-08-24T11:44:32.770Z,51.59
2018-08-24T11:45:42.935Z,51.78
2018-08-24T11:46:53.071Z,51.98
2018-08-24T11:48:03.426Z,52.27
2018-08-24T11:49:13.606Z,51.76
2018-08-24T11:50:23.223Z,51.86
2018-08-24T11:51:33.462Z,51.76
2018-08-24T11:52:43.365Z,52.73
2018-08-24T11:53:53.559Z,52.82
2018-08-24T11:55:03.821Z,52.53
2018-08-24T11:56:13.967Z,52.34
2018-08-24T11:57:24.146Z,52.44
2018-08-24T11:58:34.417Z,52.34
2018-08-24T11:59:44.712Z,52.41
2018-08-24T12:00:54.691Z,53.02
2018-08-24T12:02:05.099Z,52.31
2018-08-24T12:03:15.701Z,52.63
2018-08-24T12:04:25.856Z,52.82
2018-08-24T12:05:36.049Z,52.63
2018-08-24T12:06:46.223Z,52.53
2018-08-24T12:07:56.495Z,52.44
2018-08-24T12:09:07.023Z,52.73
2018-08-24T12:10:17.200Z,52.92
2018-08-24T12:11:27.362Z,53.02
2018-08-24T12:12:37.296Z,52.75
2018-08-24T12:13:47.715Z,52.56
2018-08-24T12:14:58.075Z,52.75
2018-08-24T12:16:08.239Z,52.27
2018-08-24T12:17:18.182Z,52.46
2018-08-24T12:18:28.117Z,51.81
2018-08-24T12:19:37.802Z,52
2018-08-24T12:20:48.127Z,51.62
2018-08-24T12:21:58.372Z,51.45
2018-08-24T12:23:08.305Z,51.35
2018-08-24T12:24:18.528Z,50.77
2018-08-24T12:25:28.932Z,50.79
2018-08-24T12:26:39.151Z,50.41
2018-08-24T12:27:49.394Z,50.5
2018-08-24T12:28:59.590Z,50.09
2018-08-24T12:30:09.483Z,49.9
2018-08-24T12:31:19.622Z,49.61
2018-08-24T12:32:29.853Z,49.51
2018-08-24T12:33:40.085Z,49.51
2018-08-24T12:34:50.476Z,49.34
2018-08-24T12:36:00.678Z,49.05
2018-08-24T12:37:10.826Z,49.05
2018-08-24T12:38:20.971Z,49.05
2018-08-24T12:39:31.161Z,48.37
2018-08-24T12:40:41.318Z,48.27
2018-08-24T12:41:50.844Z,47.79
2018-08-24T12:43:01.026Z,47.02
2018-08-24T12:44:11.236Z,47.4
2018-08-24T12:45:21.161Z,46.53
2018-08-24T12:46:31.459Z,46.14
2018-08-24T12:47:41.718Z,46.33
2018-08-24T12:48:52.087Z,46.92
2018-08-24T12:50:02.257Z,46.92
2018-08-24T12:51:12.462Z,47.3
2018-08-24T12:52:22.643Z,46.62
2018-08-24T12:53:32.869Z,46.14
2018-08-24T12:54:43.096Z,46.04
2018-08-24T12:55:53.377Z,46.24
2018-08-24T12:57:03.531Z,46.26
2018-08-24T12:58:13.708Z,45.87
2018-08-24T12:59:24.011Z,45.58
2018-08-24T13:00:34.226Z,45.58
2018-08-24T13:01:44.446Z,46.33
2018-08-24T13:02:54.682Z,46.62
2018-08-24T13:04:04.867Z,45.65
2018-08-24T13:05:14.774Z,45.27
2018-08-24T13:06:24.946Z,46.12
2018-08-24T13:07:35.848Z,46.87
2018-08-24T13:08:46.284Z,47.79
2018-08-24T13:09:56.676Z,48.64
2018-08-24T13:11:06.846Z,49.22
2018-08-24T13:12:17.151Z,49.97
2018-08-24T13:13:27.408Z,50.71
2018-08-24T13:14:37.234Z,51.95
2018-08-24T13:15:47.605Z,52.31
2018-08-24T13:16:57.780Z,52.59
2018-08-24T13:18:08.574Z,53.15
2018-08-24T13:19:18.864Z,53.34
2018-08-24T13:20:29.075Z,53.99
2018-08-24T13:21:38.854Z,54.47
2018-08-24T13:22:49.120Z,55.73
2018-08-24T13:23:59.334Z,57.07
2018-08-24T13:25:09.300Z,58.3
2018-08-24T13:26:19.492Z,59.45
2018-08-24T13:27:29.806Z,59.45
2018-08-24T13:28:40.004Z,60.87
2018-08-24T13:29:50.198Z,61.16
2018-08-24T13:31:00.353Z,62.9
2018-08-24T13:32:10.510Z,63.09
2018-08-24T13:33:20.743Z,64.98
2018-08-24T13:34:30.911Z,64.79
2018-08-24T13:35:40.887Z,64.79
2018-08-24T13:36:51.043Z,65.85
2018-08-24T13:38:01.491Z,66.14
2018-08-24T13:39:11.660Z,66.24
2018-08-24T13:40:21.893Z,66.71
2018-08-24T13:41:32.246Z,66.24
2018-08-24T13:42:42.405Z,66.62
2018-08-24T13:43:52.500Z,66.52
2018-08-24T13:45:02.143Z,66.81
2018-08-24T13:46:12.339Z,66.33
2018-08-24T13:47:22.555Z,66.62
2018-08-24T13:48:34.027Z,66.81
2018-08-24T13:49:43.935Z,66.62
2018-08-24T13:50:54.119Z,67.1
2018-08-24T13:52:04.285Z,66.81
2018-08-24T13:53:14.218Z,66.62
2018-08-24T13:54:24.496Z,66.81
2018-08-24T13:55:34.648Z,66.85
2018-08-24T13:56:44.931Z,66.65
2018-08-24T13:57:55.277Z,66.36
2018-08-24T13:59:05.095Z,65.69
2018-08-24T14:00:15.300Z,66.17
2018-08-24T14:01:25.469Z,64.92
2018-08-24T14:02:35.402Z,65.59
2018-08-24T14:03:45.729Z,64.95
2018-08-24T14:04:55.916Z,65.05
2018-08-24T14:06:05.696Z,64.47
2018-08-24T14:07:16.085Z,64.47
2018-08-24T14:08:26.251Z,64.56
2018-08-24T14:09:36.396Z,64.56
2018-08-24T14:10:48.528Z,64.28
2018-08-24T14:11:58.791Z,63.7
2018-08-24T14:13:08.741Z,63.21
2018-08-24T14:14:19.627Z,63.12
2018-08-24T14:15:29.882Z,63.12
2018-08-24T14:16:40.156Z,62.73
2018-08-24T14:17:50.342Z,62.73
2018-08-24T14:19:00.587Z,63.21
2018-08-24T14:20:10.750Z,62.63
2018-08-24T14:21:20.727Z,62.83
2018-08-24T14:22:30.660Z,62.06
2018-08-24T14:23:41.044Z,61.96
2018-08-24T14:24:51.264Z,61.32
2018-08-24T14:26:01.085Z,60.83
2018-08-24T14:27:11.115Z,60.8
2018-08-24T14:28:21.344Z,60.32
2018-08-24T14:29:31.649Z,60.8
2018-08-24T14:30:41.290Z,60.8
2018-08-24T14:31:51.831Z,60.55
2018-08-24T14:33:01.766Z,59.58
2018-08-24T14:34:12.004Z,59.39
2018-08-24T14:35:22.237Z,58.91
2018-08-24T14:36:32.486Z,59.58
2018-08-24T14:37:42.699Z,58.62
2018-08-24T14:38:52.889Z,58.62
2018-08-24T14:40:03.107Z,58.72
2018-08-24T14:41:13.330Z,59
2018-08-24T14:42:23.540Z,58.91
2018-08-24T14:43:33.701Z,58.72
2018-08-24T14:44:43.921Z,58.91
2018-08-24T14:45:54.233Z,59
2018-08-24T14:47:04.462Z,58.91
2018-08-24T14:48:15.236Z,58.81
2018-08-24T14:49:26.079Z,58.91
2018-08-24T14:50:36.289Z,58.91
2018-08-24T14:51:46.497Z,58.75
2018-08-24T14:52:56.705Z,58.55
2018-08-24T14:54:06.914Z,59.03
2018-08-24T14:55:17.141Z,58.07
2018-08-24T14:56:27.569Z,58.26
2018-08-24T14:57:37.832Z,57.87
2018-08-24T14:58:48.193Z,57.39
2018-08-24T14:59:58.493Z,57.68
2018-08-24T15:01:08.780Z,57.39
2018-08-24T15:02:18.704Z,57.01
2018-08-24T15:03:28.672Z,56.62
2018-08-24T15:04:39.121Z,56.91
2018-08-24T15:05:49.340Z,57.01
2018-08-24T15:06:59.650Z,56.81
2018-08-24T15:08:09.887Z,57.1
2018-08-24T15:09:20.091Z,57.23
2018-08-24T15:10:30.544Z,56.36
2018-08-24T15:11:40.749Z,56.36